< < Back
Terminal Aerodrome Forecast


Current Version              Previous Versions:   1  2  3  4  5  6  7  8  9  

Terminal Aerodrome Forecast

313
FTUS44 KMRX 030520
TAFCHA
TAF
KCHA 030520Z 0306/0406 00000KT P6SM SKC
     FM031500 35005KT P6SM FEW060=



Latest METAR

985
SAUS80 KWBC 040500 RRA
MTRCHA
METAR KCHA 040453Z AUTO 00000KT 10SM CLR 25/19 A2997 RMK AO2 SLP138
T02500194 403440194


USA.gov is the U.S. government's official web portal to all federal, state and local government web resources and services.